createdAt,value
2022-11-19T00:01:36.025Z,90.94
2022-11-19T00:04:07.065Z,91.35
2022-11-19T00:06:33.655Z,92.60
2022-11-19T00:09:00.229Z,92.60
2022-11-19T00:11:28.314Z,92.35
2022-11-19T00:13:54.807Z,91.59
2022-11-19T00:16:21.577Z,90.74
2022-11-19T00:18:48.089Z,90.78
2022-11-19T00:21:14.666Z,90.96
2022-11-19T00:23:41.255Z,89.49
2022-11-19T00:26:10.244Z,89.66
2022-11-19T00:28:37.464Z,89.74
2022-11-19T00:31:09.691Z,90.62
2022-11-19T00:33:37.621Z,90.83
2022-11-19T00:36:06.567Z,90.29
2022-11-19T00:38:33.706Z,89.61
2022-11-19T00:41:00.875Z,89.16
2022-11-19T00:43:28.065Z,89.00
2022-11-19T00:45:54.654Z,89.23
2022-11-19T00:48:21.241Z,88.68
2022-11-19T00:50:47.764Z,89.00
2022-11-19T00:53:14.436Z,89.58
2022-11-19T00:55:40.994Z,89.12
2022-11-19T00:58:07.677Z,88.42
2022-11-19T01:00:34.321Z,88.35
2022-11-19T01:03:00.928Z,88.33
2022-11-19T01:05:27.532Z,87.77
2022-11-19T01:07:54.225Z,87.61
2022-11-19T01:10:20.886Z,86.65
2022-11-19T01:12:48.108Z,86.46
2022-11-19T01:15:14.787Z,86.12
2022-11-19T01:17:41.407Z,86.02
2022-11-19T01:20:08.788Z,86.00
2022-11-19T01:22:35.506Z,86.36
2022-11-19T01:25:02.075Z,85.96
2022-11-19T01:27:28.703Z,85.69
2022-11-19T01:29:55.336Z,85.21
2022-11-19T01:32:21.969Z,85.01
2022-11-19T01:34:48.532Z,83.94
2022-11-19T01:37:15.370Z,84.91
2022-11-19T01:39:41.939Z,84.67
2022-11-19T01:42:19.528Z,85.15
2022-11-19T01:45:04.289Z,84.91
2022-11-19T01:47:31.128Z,85.62
2022-11-19T01:49:57.825Z,85.20
2022-11-19T01:52:24.483Z,85.48
2022-11-19T01:54:54.389Z,85.72
2022-11-19T01:57:21.667Z,85.51
2022-11-19T01:59:51.632Z,84.68
2022-11-19T02:02:19.902Z,84.75
2022-11-19T02:04:48.318Z,85.64
2022-11-19T02:07:21.030Z,84.87
2022-11-19T02:09:47.792Z,84.36
2022-11-19T02:12:41.882Z,84.75
2022-11-19T02:16:16.023Z,84.42
2022-11-19T02:18:52.219Z,83.80
2022-11-19T02:21:24.493Z,83.74
2022-11-19T02:24:09.270Z,84.66
2022-11-19T02:26:57.374Z,84.36
2022-11-19T02:29:29.613Z,84.14
2022-11-19T02:32:02.409Z,84.07
2022-11-19T02:34:33.686Z,83.85
2022-11-19T02:37:03.427Z,83.49
2022-11-19T02:39:45.187Z,82.71
2022-11-19T02:42:19.383Z,83.04
2022-11-19T02:44:51.498Z,83.78
2022-11-19T02:47:22.153Z,83.75
2022-11-19T02:49:51.386Z,82.93
2022-11-19T02:52:19.249Z,82.93
2022-11-19T02:54:45.926Z,83.64
2022-11-19T02:57:13.983Z,83.83
2022-11-19T02:59:46.813Z,84.26
2022-11-19T03:02:16.975Z,83.70
2022-11-19T03:04:43.825Z,83.39
2022-11-19T03:07:14.529Z,83.54
2022-11-19T03:09:46.559Z,82.88
2022-11-19T03:12:23.433Z,83.18
2022-11-19T03:15:05.450Z,82.75
2022-11-19T03:18:02.784Z,82.92
2022-11-19T03:20:35.788Z,83.43
2022-11-19T03:23:05.545Z,82.83
2022-11-19T03:25:38.529Z,81.40
2022-11-19T03:28:16.781Z,81.79
2022-11-19T03:30:46.236Z,82.10
2022-11-19T03:33:23.466Z,82.47
2022-11-19T03:35:55.889Z,82.64
2022-11-19T03:38:31.580Z,82.36
2022-11-19T03:40:59.377Z,82.24
2022-11-19T03:43:29.227Z,82.39
2022-11-19T03:45:58.907Z,82.36
2022-11-19T03:48:27.834Z,83.01
2022-11-19T03:51:05.174Z,82.30
2022-11-19T03:53:31.866Z,82.51
2022-11-19T03:56:09.583Z,82.21
2022-11-19T03:58:41.854Z,82.50
2022-11-19T04:01:09.486Z,82.71
2022-11-19T04:03:36.173Z,82.60
2022-11-19T04:06:03.938Z,82.19
2022-11-19T04:08:30.956Z,81.52
2022-11-19T04:13:24.590Z,81.40
2022-11-19T04:15:51.606Z,82.45
2022-11-19T04:18:18.239Z,81.94
2022-11-19T04:20:45.596Z,82.01
2022-11-19T04:23:12.158Z,81.62
2022-11-19T04:25:39.705Z,81.60
2022-11-19T04:28:06.276Z,81.47
2022-11-19T04:30:32.986Z,81.08
2022-11-19T04:32:59.693Z,81.81
2022-11-19T04:35:26.364Z,81.30
2022-11-19T04:37:52.959Z,81.36
2022-11-19T04:40:19.747Z,81.47
2022-11-19T04:42:46.321Z,82.00
2022-11-19T04:45:13.062Z,81.29
2022-11-19T04:47:40.099Z,81.96
2022-11-19T04:50:07.509Z,81.34
2022-11-19T04:52:39.266Z,81.90
2022-11-19T04:55:07.807Z,82.84
2022-11-19T04:57:34.388Z,82.71
2022-11-19T05:00:00.986Z,82.54
2022-11-19T05:02:27.595Z,82.27
2022-11-19T05:04:54.246Z,82.33
2022-11-19T05:07:20.886Z,82.02
2022-11-19T05:09:47.614Z,81.19
2022-11-19T05:12:14.209Z,81.74
2022-11-19T05:14:40.918Z,82.04
2022-11-19T05:17:07.531Z,82.23
2022-11-19T05:19:35.423Z,82.78
2022-11-19T05:22:02.039Z,82.23
2022-11-19T05:24:28.775Z,82.42
2022-11-19T05:26:55.347Z,82.54
2022-11-19T05:29:22.159Z,82.06
2022-11-19T05:31:49.030Z,82.73
2022-11-19T05:34:15.669Z,82.88
2022-11-19T05:36:42.246Z,83.65
2022-11-19T05:39:09.140Z,83.72
2022-11-19T05:41:35.761Z,83.74
2022-11-19T05:44:02.920Z,84.10
2022-11-19T05:46:29.595Z,83.93
2022-11-19T05:48:56.291Z,83.04
2022-11-19T05:51:22.887Z,82.81
2022-11-19T05:53:49.669Z,82.69
2022-11-19T05:56:16.316Z,82.86
2022-11-19T05:58:43.023Z,83.04
2022-11-19T06:01:09.639Z,83.03
2022-11-19T06:03:36.314Z,82.74
2022-11-19T06:06:02.977Z,83.44
2022-11-19T06:08:29.751Z,83.26
2022-11-19T06:10:56.320Z,83.85
2022-11-19T06:13:23.054Z,84.04
2022-11-19T06:15:49.692Z,83.64
2022-11-19T06:18:16.298Z,83.23
2022-11-19T06:20:42.875Z,84.02
2022-11-19T06:23:09.597Z,83.28
2022-11-19T06:25:36.399Z,83.04
2022-11-19T06:28:03.253Z,81.81
2022-11-19T06:30:29.867Z,82.12
2022-11-19T06:32:56.483Z,82.16
2022-11-19T06:35:23.121Z,83.13
2022-11-19T06:37:50.309Z,83.16
2022-11-19T06:40:16.994Z,83.38
2022-11-19T06:42:48.442Z,83.40
2022-11-19T06:45:17.665Z,83.89
2022-11-19T06:47:47.712Z,83.40
2022-11-19T06:50:14.421Z,83.25
2022-11-19T06:52:41.139Z,83.34
2022-11-19T06:55:08.204Z,83.00
2022-11-19T06:57:34.780Z,82.94
2022-11-19T07:00:01.738Z,83.19
2022-11-19T07:02:28.502Z,83.08
2022-11-19T07:04:55.126Z,83.47
2022-11-19T07:07:21.833Z,84.39
2022-11-19T07:09:48.570Z,83.29
2022-11-19T07:12:15.200Z,82.53
2022-11-19T07:14:41.951Z,82.57
2022-11-19T07:17:08.558Z,82.71
2022-11-19T07:19:35.218Z,82.08
2022-11-19T07:22:01.972Z,82.63
2022-11-19T07:24:28.675Z,81.96
2022-11-19T07:26:55.828Z,81.75
2022-11-19T07:29:22.812Z,81.96
2022-11-19T07:31:49.572Z,81.87
2022-11-19T07:34:17.460Z,81.66
2022-11-19T07:36:44.415Z,81.31
2022-11-19T07:39:11.296Z,82.08
2022-11-19T07:41:38.187Z,81.80
2022-11-19T07:44:05.116Z,82.41
2022-11-19T07:46:31.721Z,82.34
2022-11-19T07:48:59.167Z,82.87
2022-11-19T07:51:27.127Z,81.57
2022-11-19T07:53:55.449Z,81.81
2022-11-19T07:56:22.552Z,80.69
2022-11-19T07:58:49.398Z,80.62
2022-11-19T08:01:19.002Z,80.74
2022-11-19T08:03:51.853Z,81.00
2022-11-19T08:06:26.563Z,80.86
2022-11-19T08:08:55.116Z,81.46
2022-11-19T08:11:22.703Z,81.41
2022-11-19T08:13:49.346Z,80.12
2022-11-19T08:16:17.383Z,80.10
2022-11-19T08:18:44.672Z,79.59
2022-11-19T08:21:12.005Z,79.81
2022-11-19T08:23:39.432Z,80.12
2022-11-19T08:26:07.297Z,80.06
2022-11-19T08:28:34.473Z,79.85
2022-11-19T08:31:08.318Z,81.24
2022-11-19T08:33:35.826Z,80.39
2022-11-19T08:36:02.677Z,79.94
2022-11-19T08:38:30.735Z,80.17
2022-11-19T08:40:58.978Z,79.67
2022-11-19T08:43:27.321Z,79.22
2022-11-19T08:45:53.891Z,80.47
2022-11-19T08:48:20.637Z,79.70
2022-11-19T08:50:47.275Z,79.94
2022-11-19T08:53:14.003Z,79.15
2022-11-19T08:55:40.803Z,79.02
2022-11-19T08:58:08.194Z,78.54
2022-11-19T09:00:36.870Z,79.23
2022-11-19T09:03:04.129Z,79.52
2022-11-19T09:05:30.785Z,78.97
2022-11-19T09:07:57.662Z,78.44
2022-11-19T09:10:24.467Z,79.08
2022-11-19T09:12:51.198Z,78.97
2022-11-19T09:15:17.845Z,79.19
2022-11-19T09:17:47.070Z,78.86
2022-11-19T09:20:14.281Z,78.98
2022-11-19T09:22:41.070Z,78.87
2022-11-19T09:25:08.218Z,78.49
2022-11-19T09:27:36.459Z,77.85
2022-11-19T09:30:04.771Z,77.45
2022-11-19T09:32:31.533Z,77.38
2022-11-19T09:34:58.139Z,76.79
2022-11-19T09:37:24.770Z,76.61
2022-11-19T09:39:51.603Z,75.36
2022-11-19T09:42:42.847Z,75.66
2022-11-19T09:45:33.307Z,75.10
2022-11-19T09:48:17.976Z,75.25
2022-11-19T09:50:55.751Z,75.41
2022-11-19T09:53:23.299Z,74.19
2022-11-19T09:55:53.463Z,74.55
2022-11-19T09:58:30.694Z,74.17
2022-11-19T10:00:57.342Z,74.39
2022-11-19T10:03:31.576Z,74.37
2022-11-19T10:06:15.317Z,74.40
2022-11-19T10:08:41.952Z,74.12
2022-11-19T10:11:33.572Z,72.48
2022-11-19T10:14:44.936Z,74.27
2022-11-19T10:17:33.454Z,74.64
2022-11-19T10:20:18.721Z,73.81
2022-11-19T10:22:57.733Z,74.40
2022-11-19T10:25:33.661Z,73.17
2022-11-19T10:28:21.036Z,73.39
2022-11-19T10:31:27.301Z,73.29
2022-11-19T10:34:19.537Z,73.17
2022-11-19T10:36:52.553Z,73.35
2022-11-19T10:39:19.500Z,73.32
2022-11-19T10:42:09.014Z,72.13
2022-11-19T10:44:41.387Z,71.91
2022-11-19T10:47:22.043Z,71.53
2022-11-19T10:49:54.024Z,71.54
2022-11-19T10:52:31.148Z,72.14
2022-11-19T10:55:21.126Z,71.21
2022-11-19T10:57:50.740Z,71.40
2022-11-19T11:00:17.935Z,71.06
2022-11-19T11:02:57.561Z,69.91
2022-11-19T11:05:24.242Z,69.91
2022-11-19T11:07:57.904Z,70.48
2022-11-19T11:10:40.372Z,71.43
2022-11-19T11:13:16.252Z,71.64
2022-11-19T11:15:47.845Z,70.67
2022-11-19T11:18:15.362Z,71.68
2022-11-19T11:20:48.054Z,71.94
2022-11-19T11:23:52.038Z,71.26
2022-11-19T11:26:22.882Z,70.91
2022-11-19T11:29:01.991Z,71.00
2022-11-19T11:31:31.767Z,69.70
2022-11-19T11:33:58.419Z,69.60
2022-11-19T11:36:27.400Z,71.13
2022-11-19T11:38:56.587Z,70.20
2022-11-19T11:44:25.872Z,67.63
2022-11-19T11:46:53.879Z,67.43
2022-11-19T11:50:14.165Z,68.54
2022-11-19T11:52:42.373Z,67.02
2022-11-19T11:55:23.748Z,67.82
2022-11-19T11:57:59.066Z,67.07
2022-11-19T12:00:40.217Z,66.19
2022-11-19T12:03:15.506Z,65.55
2022-11-19T12:05:50.589Z,67.65
2022-11-19T12:08:29.108Z,68.12
2022-11-19T12:11:07.420Z,67.17
2022-11-19T12:13:52.345Z,66.96
2022-11-19T12:16:39.884Z,69.51
2022-11-19T12:19:19.765Z,66.90
2022-11-19T12:22:35.681Z,67.51
2022-11-19T12:25:08.341Z,67.52
2022-11-19T12:28:14.569Z,66.27
2022-11-19T12:30:51.251Z,66.87
2022-11-19T12:33:36.026Z,67.17
2022-11-19T12:36:19.087Z,66.73
2022-11-19T12:38:45.685Z,66.09
2022-11-19T12:41:52.147Z,66.45
2022-11-19T12:44:37.422Z,66.26
2022-11-19T12:47:25.179Z,65.61
2022-11-19T12:50:03.344Z,64.90
2022-11-19T12:52:51.938Z,65.96
2022-11-19T12:55:36.159Z,67.12
2022-11-19T12:58:12.261Z,67.62
2022-11-19T13:00:46.721Z,67.45
2022-11-19T13:03:20.794Z,68.05
2022-11-19T13:06:02.666Z,67.91
2022-11-19T13:08:41.710Z,67.83
2022-11-19T13:11:17.295Z,67.28
2022-11-19T13:13:49.202Z,67.96
2022-11-19T13:16:20.050Z,67.65
2022-11-19T13:18:50.474Z,68.57
2022-11-19T13:21:43.341Z,67.40
2022-11-19T13:24:28.244Z,67.32
2022-11-19T13:27:00.639Z,67.08
2022-11-19T13:29:33.037Z,66.55
2022-11-19T13:32:11.065Z,67.89
2022-11-19T13:35:00.914Z,69.99
2022-11-19T13:37:45.733Z,68.86
2022-11-19T13:40:26.426Z,67.71
2022-11-19T13:43:10.443Z,67.90
2022-11-19T13:45:46.798Z,68.22
2022-11-19T13:48:21.926Z,68.75
2022-11-19T13:50:52.363Z,67.66
2022-11-19T13:53:23.945Z,68.96
2022-11-19T13:55:55.970Z,68.47
2022-11-19T13:58:34.652Z,68.70
2022-11-19T14:01:08.460Z,68.17
2022-11-19T14:03:56.963Z,67.22
2022-11-19T14:06:52.994Z,67.23
2022-11-19T14:09:34.043Z,66.68
2022-11-19T14:12:23.847Z,67.28
2022-11-19T14:15:00.252Z,66.73
2022-11-19T14:18:06.235Z,68.39
2022-11-19T14:20:37.868Z,68.01
2022-11-19T14:23:04.529Z,67.38
2022-11-19T14:25:44.405Z,67.20
2022-11-19T14:28:47.965Z,67.85
2022-11-19T14:31:16.473Z,66.54
2022-11-19T14:33:48.778Z,66.17
2022-11-19T14:36:22.042Z,66.60
2022-11-19T14:38:56.846Z,67.42
2022-11-19T14:41:28.359Z,67.14
2022-11-19T14:44:34.066Z,67.21
2022-11-19T14:47:22.173Z,67.99
2022-11-19T14:49:54.012Z,70.16
2022-11-19T14:52:24.474Z,69.85
2022-11-19T14:54:56.995Z,69.90
2022-11-19T14:57:26.140Z,69.38
2022-11-19T14:59:58.919Z,69.46
2022-11-19T15:02:35.247Z,68.95
2022-11-19T15:05:14.827Z,68.50
2022-11-19T15:07:45.468Z,69.22
2022-11-19T15:13:25.583Z,69.08
2022-11-19T15:16:07.159Z,68.85
2022-11-19T15:18:36.848Z,69.65
2022-11-19T15:21:29.952Z,69.25
2022-11-19T15:24:21.500Z,69.20
2022-11-19T15:27:19.007Z,69.63
2022-11-19T15:30:20.952Z,69.11
2022-11-19T15:33:06.332Z,69.10
2022-11-19T15:36:17.568Z,69.35
2022-11-19T15:38:59.834Z,69.21
2022-11-19T15:41:31.536Z,69.63
2022-11-19T15:44:01.566Z,69.86
2022-11-19T15:46:34.094Z,69.22
2022-11-19T15:49:11.563Z,68.32
2022-11-19T15:51:56.539Z,68.12
2022-11-19T15:54:28.291Z,68.77
2022-11-19T15:57:16.959Z,69.31
2022-11-19T15:59:47.697Z,69.75
2022-11-19T16:02:32.423Z,68.88
2022-11-19T16:04:59.246Z,68.76
2022-11-19T16:07:28.914Z,68.23
2022-11-19T16:09:57.378Z,69.25
2022-11-19T16:12:26.222Z,69.53
2022-11-19T16:14:53.712Z,69.82
2022-11-19T16:17:23.906Z,69.64
2022-11-19T16:20:10.090Z,69.61
2022-11-19T16:22:57.111Z,69.16
2022-11-19T16:25:39.991Z,68.92
2022-11-19T16:28:11.459Z,69.17
2022-11-19T16:30:48.144Z,69.07
2022-11-19T16:33:18.985Z,68.73
2022-11-19T16:35:51.227Z,69.36
2022-11-19T16:38:26.503Z,68.91
2022-11-19T16:40:54.899Z,68.82
2022-11-19T16:43:21.550Z,68.68
2022-11-19T16:45:49.209Z,68.28
2022-11-19T16:48:52.857Z,68.50
2022-11-19T16:51:31.561Z,68.75
2022-11-19T16:53:58.875Z,68.23
2022-11-19T16:56:26.367Z,68.58
2022-11-19T16:58:59.152Z,68.68
2022-11-19T17:01:29.431Z,68.93
2022-11-19T17:04:03.899Z,68.95
2022-11-19T17:06:33.363Z,69.01
2022-11-19T17:09:01.018Z,69.03
2022-11-19T17:11:46.001Z,69.21
2022-11-19T17:14:24.931Z,69.61
2022-11-19T17:16:53.333Z,69.12
2022-11-19T17:19:25.270Z,69.31
2022-11-19T17:21:58.675Z,69.88
2022-11-19T17:24:28.130Z,69.18
2022-11-19T17:26:55.360Z,69.32
2022-11-19T17:29:23.899Z,69.40
2022-11-19T17:31:53.754Z,69.74
2022-11-19T17:34:23.359Z,69.09
2022-11-19T17:36:50.055Z,69.78
2022-11-19T17:39:22.520Z,69.99
2022-11-19T17:41:56.174Z,69.66
2022-11-19T17:44:27.631Z,69.56
2022-11-19T17:46:54.278Z,68.78
2022-11-19T17:49:20.886Z,69.56
2022-11-19T17:51:47.589Z,69.18
2022-11-19T17:54:14.172Z,69.50
2022-11-19T17:56:41.058Z,69.33
2022-11-19T17:59:07.764Z,68.72
2022-11-19T18:01:34.862Z,69.29
2022-11-19T18:04:01.537Z,69.34
2022-11-19T18:06:28.284Z,69.06
2022-11-19T18:08:54.854Z,69.12
2022-11-19T18:11:24.108Z,68.29
2022-11-19T18:13:53.207Z,68.66
2022-11-19T18:16:23.215Z,69.23
2022-11-19T18:18:50.427Z,69.64
2022-11-19T18:21:19.567Z,69.11
2022-11-19T18:23:47.887Z,69.47
2022-11-19T18:26:18.994Z,69.30
2022-11-19T18:28:48.846Z,68.97
2022-11-19T18:31:19.755Z,69.81
2022-11-19T18:33:47.656Z,69.87
2022-11-19T18:36:15.178Z,70.07
2022-11-19T18:38:42.766Z,70.06
2022-11-19T18:41:11.124Z,69.92
2022-11-19T18:43:40.061Z,69.66
2022-11-19T18:46:06.850Z,70.13
2022-11-19T18:48:33.459Z,70.10
2022-11-19T18:51:00.223Z,70.01
2022-11-19T18:53:27.387Z,70.05
2022-11-19T18:55:54.586Z,69.37
2022-11-19T18:58:21.316Z,69.37
2022-11-19T19:00:50.847Z,69.65
2022-11-19T19:03:17.522Z,69.31
2022-11-19T19:05:44.086Z,69.64
2022-11-19T19:08:10.760Z,69.44
2022-11-19T19:10:37.335Z,69.41
2022-11-19T19:13:04.362Z,69.29
2022-11-19T19:15:31.028Z,69.79
2022-11-19T19:17:57.686Z,69.08
2022-11-19T19:20:24.251Z,69.72
2022-11-19T19:22:51.058Z,69.93
2022-11-19T19:25:17.739Z,69.75
2022-11-19T19:27:44.431Z,68.94
2022-11-19T19:30:11.670Z,69.25
2022-11-19T19:32:38.339Z,69.97
2022-11-19T19:35:05.530Z,70.61
2022-11-19T19:37:32.542Z,70.74
2022-11-19T19:40:01.439Z,70.61
2022-11-19T19:42:29.195Z,70.18
2022-11-19T19:44:56.344Z,69.69
2022-11-19T19:47:24.374Z,69.34
2022-11-19T19:49:51.255Z,69.16
2022-11-19T19:52:18.230Z,69.00
2022-11-19T19:54:44.899Z,66.71
2022-11-19T19:57:11.618Z,67.27
2022-11-19T19:59:38.237Z,69.10
2022-11-19T20:02:04.984Z,69.62
2022-11-19T20:04:32.060Z,70.16
2022-11-19T20:06:59.007Z,70.03
2022-11-19T20:09:25.911Z,70.15
2022-11-19T20:11:52.751Z,69.76
2022-11-19T20:14:19.458Z,70.20
2022-11-19T20:16:46.295Z,70.25
2022-11-19T20:19:14.252Z,70.08
2022-11-19T20:21:41.415Z,69.84
2022-11-19T20:24:12.142Z,71.26
2022-11-19T20:26:40.820Z,70.33
2022-11-19T20:29:07.861Z,69.21
2022-11-19T20:31:34.829Z,69.09
2022-11-19T20:34:03.815Z,70.58
2022-11-19T20:36:32.865Z,69.11
2022-11-19T20:39:00.245Z,69.35
2022-11-19T20:41:27.972Z,68.53
2022-11-19T20:43:55.633Z,69.52
2022-11-19T20:46:22.549Z,69.56
2022-11-19T20:48:49.159Z,70.42
2022-11-19T20:51:16.092Z,71.52
2022-11-19T20:53:45.522Z,70.74
2022-11-19T20:56:12.802Z,70.91
2022-11-19T20:58:39.504Z,71.13
2022-11-19T21:01:08.775Z,70.98
2022-11-19T21:03:35.346Z,71.16
2022-11-19T21:06:04.180Z,70.64
2022-11-19T21:08:32.228Z,71.39
2022-11-19T21:11:07.926Z,71.31
2022-11-19T21:13:35.072Z,71.10
2022-11-19T21:16:06.741Z,71.24
2022-11-19T21:18:36.817Z,69.99
2022-11-19T21:21:07.247Z,70.62
2022-11-19T21:23:34.223Z,70.11
2022-11-19T21:26:08.994Z,70.78
2022-11-19T21:28:36.701Z,70.99
2022-11-19T21:31:04.158Z,71.34
2022-11-19T21:33:30.796Z,70.72
2022-11-19T21:35:58.792Z,70.82
2022-11-19T21:38:25.913Z,70.51
2022-11-19T21:40:54.421Z,70.58
2022-11-19T21:43:23.030Z,70.17
2022-11-19T21:45:50.458Z,70.12
2022-11-19T21:48:17.195Z,70.71
2022-11-19T21:50:43.962Z,70.76
2022-11-19T21:53:11.938Z,70.52
2022-11-19T21:55:38.890Z,70.47
2022-11-19T21:58:06.519Z,69.90
2022-11-19T22:00:34.020Z,70.21
2022-11-19T22:03:00.821Z,68.45
2022-11-19T22:05:28.114Z,69.37
2022-11-19T22:07:57.625Z,69.13
2022-11-19T22:10:24.222Z,69.12
2022-11-19T22:12:51.150Z,66.02
2022-11-19T22:15:18.048Z,66.66
2022-11-19T22:17:44.758Z,67.10
2022-11-19T22:20:12.533Z,68.14
2022-11-19T22:22:39.334Z,69.14
2022-11-19T22:25:06.179Z,70.25
2022-11-19T22:27:33.034Z,70.41
2022-11-19T22:30:03.110Z,70.56
2022-11-19T22:32:32.504Z,70.87
2022-11-19T22:35:00.282Z,71.51
2022-11-19T22:37:26.911Z,70.90
2022-11-19T22:39:53.522Z,70.86
2022-11-19T22:42:20.331Z,71.20
2022-11-19T22:44:47.153Z,70.68
2022-11-19T22:47:13.819Z,70.86
2022-11-19T22:49:40.693Z,71.47
2022-11-19T22:52:07.417Z,70.48
2022-11-19T22:54:40.176Z,70.33
2022-11-19T22:57:08.217Z,71.05
2022-11-19T22:59:35.078Z,71.18
2022-11-19T23:02:01.878Z,71.12
2022-11-19T23:04:28.600Z,70.75
2022-11-19T23:06:55.555Z,70.12
2022-11-19T23:09:22.564Z,71.16
2022-11-19T23:11:49.603Z,71.07
2022-11-19T23:14:17.676Z,71.94
2022-11-19T23:16:44.930Z,71.43
2022-11-19T23:19:14.151Z,70.51
2022-11-19T23:21:41.129Z,71.61
2022-11-19T23:24:09.130Z,72.07
2022-11-19T23:26:36.374Z,71.79
2022-11-19T23:29:03.964Z,70.94
2022-11-19T23:31:36.683Z,71.38
2022-11-19T23:34:04.994Z,71.82
2022-11-19T23:36:33.963Z,72.03
2022-11-19T23:39:01.221Z,71.23
2022-11-19T23:41:28.271Z,70.25
2022-11-19T23:43:56.091Z,70.54
2022-11-19T23:46:25.389Z,70.71
2022-11-19T23:48:52.895Z,70.22
2022-11-19T23:51:22.767Z,70.79
2022-11-19T23:53:49.733Z,70.91
2022-11-19T23:56:18.071Z,70.95
2022-11-19T23:58:45.032Z,71.16
